PILOTS ONLINE: 405    ATC ONLINE: 51

KFHU - Sierra Vista Municipal Libby Army Air Field

Location

IATA FHU
City Fort Huachuca Sierra Vista
Country  United States
Latitude 31° 35' 18" N
Longitude 110° 20' 38" W
Elevation 4719 ft
Type Medium Airport

Runways

03/21 4285 ft / 75 ft
08/26 12001 ft / 150 ft
12/30 5366 ft / 100 ft

Weather

METAR
2014/07/30 22:55
KFHU 302255Z 25010KT 10SM FEW075 BKN180 BKN260 30/12 A3015 RMK CB DSNT NE AND SW SLP139
TAF
2014/07/30 19:42
TAF 
      AMD KFHU 3019/0101 12012KT 9999 -SHRA VCTS FEW070CB SCT150 BKN250 QNH3015INS 
      TEMPO 3019/3024 VRB15G25KT -TSRA FEW070CB BKN120 
      BECMG 3103/3104 VRB06KT 9999 BKN100 QNH3016INS 
      BECMG 3119/3120 26010G15KT 9999 VCTS FEW070CB FEW140 SCT220 QNH3008INS 
      TEMPO 3120/0101 VRB15G25KT 9000 -TSRA TX35/3023Z TN21/3113Z 
      AMD 301927

Outbound flights

Inbound flights